Zodiac — WTH5653 — position and weather

sailwx.info

Track history (hours):
 
Tides and Currents Weather Stations Pressure Air Temp Water Temp Dewpoint Dewpoint Depression Visibility Wind Speed Wind Dir Waves Ship Positions

Zodiac

Ship's website: http://www.schoonerzodiac.com/

Owner: VESSEL ZODIAC CORP, Bellingham, WA. More information available from US FCC via Universal Licensing System and Coast Guard Vessel Documentation Center.

Last reported at 2018-Aug-14 06:14 UTC. Time now 2018-Aug-14 07:04 UTC.
Position N 48°40' W 123°11'.

Length 34 m.

Type: Sailing vessel. MMSI: 366968070.

Date/timePositionNaut miles runAvg speedWind from/ knotsBaromVisibWave heightAir tempDewpointWater temp
2018-Aug-14 06:14N 48°40' W 123°11'0 0.0
2018-Aug-14 05:10N 48°40' W 123°11'0 0.0
2018-Aug-14 05:00N 48°40' W 123°11'0 0.0
2018-Aug-14 02:55N 48°40' W 123°11'1 3.0
2018-Aug-14 02:30N 48°39' W 123°10'2 4.2
2018-Aug-14 01:59N 48°37' W 123°10'0 0.0
2018-Aug-14 00:52N 48°37' W 123°10'0 0.0
2018-Aug-14 00:23N 48°37' W 123°10'0 0.0
2018-Aug-13 23:53N 48°37' W 123°10'0 0.0
2018-Aug-13 23:25N 48°37' W 123°10'0 0.0
2018-Aug-13 22:54N 48°37' W 123°10'0 0.0
2018-Aug-13 22:13N 48°37' W 123°10'0 0.0
2018-Aug-13 21:56N 48°37' W 123°10'0 0.0
2018-Aug-13 21:23N 48°37' W 123°10'0 0.0
2018-Aug-13 20:54N 48°37' W 123°10'0 0.0
2018-Aug-13 20:23N 48°37' W 123°10'0 0.0
2018-Aug-13 17:49N 48°37' W 123°10'2 7.2
2018-Aug-13 17:28N 48°38' W 123°07'4 8.0
2018-Aug-13 17:00N 48°35' W 123°02'3 5.6
2018-Aug-13 16:30N 48°32' W 123°01'0 0.5
2018-Aug-13 16:00N 48°32' W 123°01'2 4.1
2018-Aug-13 15:30N 48°34' W 122°59'0 0.1
2018-Aug-13 15:00N 48°34' W 122°59'0 0.1
2018-Aug-13 14:30N 48°34' W 122°59'0 0.0
2018-Aug-13 14:00N 48°34' W 122°59'0 0.0
2018-Aug-13 13:29N 48°34' W 122°59'0 0.0
2018-Aug-13 13:00N 48°34' W 122°59'0 0.0
2018-Aug-13 12:30N 48°34' W 122°59'0 0.1
2018-Aug-13 12:00N 48°34' W 122°59'0 0.0
2018-Aug-13 11:30N 48°34' W 122°59'0 0.0
2018-Aug-13 11:00N 48°34' W 122°59'0 0.0
2018-Aug-13 10:30N 48°34' W 122°59'0 0.0
2018-Aug-13 10:00N 48°34' W 122°59'0 0.0
2018-Aug-13 09:30N 48°34' W 122°59'0 0.0
2018-Aug-13 08:59N 48°34' W 122°59'0 0.0
2018-Aug-13 08:30N 48°34' W 122°59'0 0.0
2018-Aug-13 07:59N 48°34' W 122°59'0 0.0
2018-Aug-13 07:30N 48°34' W 122°59'0 0.0
2018-Aug-13 06:59N 48°34' W 122°59'0 0.0
2018-Aug-13 06:30N 48°34' W 122°59'0 0.0
2018-Aug-13 06:00N 48°34' W 122°59'0 0.1
2018-Aug-13 05:30N 48°34' W 122°59'0 0.0
2018-Aug-13 05:00N 48°34' W 122°59'0 0.0
2018-Aug-13 04:30N 48°34' W 122°59'0 0.0
2018-Aug-13 04:00N 48°34' W 122°59'0 0.0
2018-Aug-13 03:30N 48°34' W 122°59'0 0.1
2018-Aug-13 03:00N 48°34' W 122°59'0 0.0
2018-Aug-13 02:30N 48°34' W 122°59'0 0.0
2018-Aug-13 02:00N 48°34' W 122°59'0 0.0
2018-Aug-13 01:30N 48°34' W 122°59'0 0.0
2018-Aug-13 01:00N 48°34' W 122°59'1 2.6
2018-Aug-13 00:30N 48°33' W 122°58'3 5.8
2018-Aug-13 00:00N 48°34' W 122°54'0 0.0
2018-Aug-12 23:30N 48°34' W 122°54'0 0.0
2018-Aug-12 23:00N 48°34' W 122°54'0 0.0
2018-Aug-12 22:30N 48°34' W 122°54'0 0.0
2018-Aug-12 22:00N 48°34' W 122°54'0 0.0
2018-Aug-12 21:30N 48°34' W 122°54'0 0.0
2018-Aug-12 21:00N 48°34' W 122°54'0 0.0
2018-Aug-12 20:30N 48°34' W 122°54'0 0.0
2018-Aug-12 20:00N 48°34' W 122°54'0 0.0
2018-Aug-12 19:30N 48°34' W 122°54'0 0.0
2018-Aug-12 19:00N 48°34' W 122°54'0 0.1
2018-Aug-12 18:30N 48°34' W 122°54'3 6.2
2018-Aug-12 18:00N 48°35' W 122°50'510.4
2018-Aug-12 17:30N 48°39' W 122°44'5 9.0
2018-Aug-12 17:00N 48°42' W 122°48'4 8.4
2018-Aug-12 16:29N 48°45' W 122°53'1 0.5
2018-Aug-12 14:44N 48°46' W 122°54'0 0.0
2018-Aug-12 14:30N 48°46' W 122°54'0 0.0
2018-Aug-12 14:00N 48°46' W 122°54'0 0.0
2018-Aug-12 13:26N 48°46' W 122°54'0 0.0
2018-Aug-12 12:43N 48°46' W 122°54'0 0.0
2018-Aug-12 12:25N 48°46' W 122°54'0 0.0
2018-Aug-12 11:58N 48°46' W 122°54'0 0.0
2018-Aug-12 11:27N 48°46' W 122°54'0 0.0
2018-Aug-12 11:00N 48°46' W 122°54'0 0.0
2018-Aug-12 10:29N 48°46' W 122°54'0 0.0
2018-Aug-12 10:00N 48°46' W 122°54'0 0.0
2018-Aug-12 09:10N 48°46' W 122°54'0 0.0
2018-Aug-12 09:00N 48°46' W 122°54'0 0.0
2018-Aug-12 08:30N 48°46' W 122°54'0 0.0
2018-Aug-12 07:59N 48°46' W 122°54'0 0.0
2018-Aug-12 07:24N 48°46' W 122°54'0 0.0
2018-Aug-12 06:54N 48°46' W 122°54'0 0.0
2018-Aug-12 06:21N 48°46' W 122°54'0 0.0
2018-Aug-12 06:00N 48°46' W 122°54'0 0.0
2018-Aug-12 05:30N 48°46' W 122°54'0 0.0
2018-Aug-12 03:58N 48°46' W 122°54'0 0.0
2018-Aug-12 03:13N 48°46' W 122°54'0 0.0
2018-Aug-12 02:51N 48°46' W 122°54'0 0.0
2018-Aug-12 02:28N 48°46' W 122°54'0 0.0
2018-Aug-12 01:55N 48°46' W 122°54'0 0.0
2018-Aug-12 01:29N 48°46' W 122°54'0 0.0
2018-Aug-12 00:52N 48°46' W 122°54'0 0.0
2018-Aug-12 00:30N 48°46' W 122°54'0 0.0
2018-Aug-11 23:52N 48°46' W 122°54'3 2.7
2018-Aug-11 22:42N 48°44' W 122°50'1 5.7
2018-Aug-11 22:28N 48°43' W 122°48'6 5.7
2018-Aug-11 21:23N 48°39' W 122°41'2 2.3
2018-Aug-11 20:40N 48°38' W 122°39'1 2.3
2018-Aug-11 20:23N 48°37' W 122°39'1 2.0
2018-Aug-11 20:00N 48°37' W 122°38'3 5.1
2018-Aug-11 19:29N 48°38' W 122°35'2 4.0
2018-Aug-11 19:00N 48°39' W 122°33'1 2.2
2018-Aug-11 18:29N 48°40' W 122°34'4 7.6
2018-Aug-11 18:00N 48°43' W 122°31'0 0.5
2018-Aug-11 17:28N 48°43' W 122°31'0 0.0
2018-Aug-11 17:00N 48°43' W 122°31'0 0.0
2018-Aug-11 16:30N 48°43' W 122°31'0 0.0
2018-Aug-11 16:00N 48°43' W 122°31'0 0.0
2018-Aug-11 15:30N 48°43' W 122°31'0 0.0
2018-Aug-11 14:59N 48°43' W 122°31'0 0.0
2018-Aug-11 14:30N 48°43' W 122°31'0 0.0
2018-Aug-11 14:00N 48°43' W 122°31'0 0.0
2018-Aug-11 13:30N 48°43' W 122°31'0 0.0
2018-Aug-11 13:00N 48°43' W 122°31'0 0.0
2018-Aug-11 12:30N 48°43' W 122°31'0 0.0
2018-Aug-11 12:00N 48°43' W 122°31'0 0.0
2018-Aug-11 11:30N 48°43' W 122°31'0 0.0
2018-Aug-11 11:00N 48°43' W 122°31'0 0.0
2018-Aug-11 10:30N 48°43' W 122°31'0 0.0
2018-Aug-11 10:00N 48°43' W 122°31'0 0.0
2018-Aug-11 09:30N 48°43' W 122°31'0 0.0
2018-Aug-11 09:00N 48°43' W 122°31'0 0.0
2018-Aug-11 08:30N 48°43' W 122°31'0 0.0
2018-Aug-11 08:00N 48°43' W 122°31'0 0.0
2018-Aug-11 07:30N 48°43' W 122°31'0 0.0
2018-Aug-11 07:00N 48°43' W 122°31'0 0.0
2018-Aug-11 06:29N 48°43' W 122°31'0 0.0
2018-Aug-11 06:00N 48°43' W 122°31'0 0.0
2018-Aug-11 05:29N 48°43' W 122°31'0 0.0
2018-Aug-11 05:00N 48°43' W 122°31'0 0.0
2018-Aug-11 04:30N 48°43' W 122°31'0 0.1
2018-Aug-11 04:00N 48°43' W 122°31'1 2.3
2018-Aug-11 03:25N 48°44' W 122°33'2 4.4
2018-Aug-11 03:00N 48°44' W 122°36'2 4.8
2018-Aug-11 02:29N 48°44' W 122°32'1 2.5
2018-Aug-11 01:58N 48°43' W 122°34'1 2.4
2018-Aug-11 01:24N 48°42' W 122°32'1 3.0
2018-Aug-11 01:00N 48°43' W 122°31'0 0.0
2018-Aug-11 00:30N 48°43' W 122°31'0 0.0
2018-Aug-11 00:00N 48°43' W 122°31'0 0.0
2018-Aug-10 23:30N 48°43' W 122°31'0 0.0
2018-Aug-10 23:00N 48°43' W 122°31'0 0.0
2018-Aug-10 22:30N 48°43' W 122°31'0 0.0
2018-Aug-10 22:00N 48°43' W 122°31'0 0.0
2018-Aug-10 21:30N 48°43' W 122°31'0 0.0
2018-Aug-10 20:59N 48°43' W 122°31'0 0.0
2018-Aug-10 20:30N 48°43' W 122°31'0 0.0
2018-Aug-10 20:00N 48°43' W 122°31'0 0.0
2018-Aug-10 19:30N 48°43' W 122°31'0 0.0
2018-Aug-10 19:00N 48°43' W 122°31'0 0.0
2018-Aug-10 18:30N 48°43' W 122°31'0 0.0
2018-Aug-10 18:00N 48°43' W 122°31'0 0.0
2018-Aug-10 17:29N 48°43' W 122°31'0 0.0
2018-Aug-10 17:00N 48°43' W 122°31'0 0.0
2018-Aug-10 16:28N 48°43' W 122°31'0 0.0
2018-Aug-10 16:00N 48°43' W 122°31'0 0.0
2018-Aug-10 15:30N 48°43' W 122°31'0 0.0
2018-Aug-10 15:00N 48°43' W 122°31'0 0.0
2018-Aug-10 14:30N 48°43' W 122°31'0 0.0
2018-Aug-10 14:00N 48°43' W 122°31'0 0.0
2018-Aug-10 13:30N 48°43' W 122°31'0 0.0
2018-Aug-10 13:00N 48°43' W 122°31'0 0.0
2018-Aug-10 12:29N 48°43' W 122°31'0 0.0
2018-Aug-10 12:00N 48°43' W 122°31'0 0.0
2018-Aug-10 11:30N 48°43' W 122°31'0 0.0
2018-Aug-10 11:00N 48°43' W 122°31'0 0.0
2018-Aug-10 10:30N 48°43' W 122°31'0 0.0
2018-Aug-10 10:00N 48°43' W 122°31'0 0.0
2018-Aug-10 09:30N 48°43' W 122°31'0 0.0
2018-Aug-10 09:00N 48°43' W 122°31'0 0.0
2018-Aug-10 08:30N 48°43' W 122°31'0 0.0
2018-Aug-10 08:00N 48°43' W 122°31'0 0.0
2018-Aug-10 07:30N 48°43' W 122°31'0 0.0
2018-Aug-10 07:00N 48°43' W 122°31'0 0.0
2018-Aug-10 06:30N 48°43' W 122°31'0 0.0
2018-Aug-10 06:00N 48°43' W 122°31'0 0.0
2018-Aug-10 05:30N 48°43' W 122°31'0 0.0
2018-Aug-10 05:00N 48°43' W 122°31'0 0.0
2018-Aug-10 04:30N 48°43' W 122°31'0 0.3
2018-Aug-10 03:59N 48°43' W 122°31'1 1.1
2018-Aug-10 03:26N 48°43' W 122°32'1 3.1
2018-Aug-10 02:58N 48°42' W 122°33'1 2.2
2018-Aug-10 02:29N 48°42' W 122°31'2 3.1
2018-Aug-10 01:58N 48°42' W 122°34'2 3.3
2018-Aug-10 01:15N 48°43' W 122°31'0 0.7
2018-Aug-10 00:58N 48°43' W 122°31'0 0.0
2018-Aug-10 00:30N 48°43' W 122°31'0 0.0
2018-Aug-10 00:00N 48°43' W 122°31'0 0.0
2018-Aug-09 23:29N 48°43' W 122°31'0 0.0
2018-Aug-09 23:00N 48°43' W 122°31'0 0.0
2018-Aug-09 22:29N 48°43' W 122°31'0 0.0
2018-Aug-09 22:00N 48°43' W 122°31'0 0.6
2018-Aug-09 21:27N 48°44' W 122°31'2 2.1
2018-Aug-09 20:30N 48°43' W 122°34'1 2.0
2018-Aug-09 19:48N 48°42' W 122°34'1 2.7
2018-Aug-09 19:28N 48°41' W 122°33'1 2.7
2018-Aug-09 18:57N 48°40' W 122°33'1 3.3
2018-Aug-09 18:30N 48°38' W 122°35'3 5.3
2018-Aug-09 18:00N 48°39' W 122°39'3 5.6
2018-Aug-09 17:30N 48°39' W 122°43'5 9.8
2018-Aug-09 17:00N 48°42' W 122°49'5 8.9
2018-Aug-09 16:29N 48°46' W 122°54'0 0.2
2018-Aug-09 15:49N 48°46' W 122°54'0 0.0
2018-Aug-09 15:19N 48°46' W 122°54'0 0.0
2018-Aug-09 13:54N 48°46' W 122°54'0 0.0
2018-Aug-09 13:00N 48°46' W 122°54'0 0.0
2018-Aug-09 11:57N 48°46' W 122°54'0 0.0
2018-Aug-09 11:24N 48°46' W 122°54'0 0.0
2018-Aug-09 10:58N 48°46' W 122°54'0 0.0
2018-Aug-09 08:08N 48°46' W 122°54'0 0.0
2018-Aug-09 07:50N 48°46' W 122°54'0 0.0
2018-Aug-09 07:17N 48°46' W 122°54'0 0.0
2018-Aug-09 03:37N 48°46' W 122°54'0 0.0
2018-Aug-09 00:19N 48°46' W 122°54'1 3.8
2018-Aug-09 00:00N 48°45' W 122°53'5 7.4
2018-Aug-08 23:21N 48°41' W 122°58'1 2.9
2018-Aug-08 23:00N 48°41' W 122°60'1 2.5
2018-Aug-08 22:29N 48°40' W 123°00'2 3.3
2018-Aug-08 22:00N 48°40' W 123°03'1 1.2
2018-Aug-08 21:30N 48°39' W 123°03'2 3.6
2018-Aug-08 21:00N 48°38' W 123°02'2 3.4
2018-Aug-08 20:30N 48°36' W 123°02'1 1.4
2018-Aug-08 20:00N 48°36' W 123°03'0 0.6
2018-Aug-08 19:30N 48°36' W 123°03'0 0.9
2018-Aug-08 19:00N 48°35' W 123°03'3 5.7
2018-Aug-08 18:30N 48°34' W 122°59'0 0.0
2018-Aug-08 18:00N 48°34' W 122°59'0 0.0
2018-Aug-08 17:29N 48°34' W 122°59'0 0.0
2018-Aug-08 17:00N 48°34' W 122°59'0 0.0
2018-Aug-08 16:30N 48°34' W 122°59'0 0.0
2018-Aug-08 16:00N 48°34' W 122°59'0 0.0
2018-Aug-08 15:30N 48°34' W 122°59'0 0.0
2018-Aug-08 15:00N 48°34' W 122°59'0 0.0
2018-Aug-08 14:30N 48°34' W 122°59'0 0.0
2018-Aug-08 14:00N 48°34' W 122°59'0 0.0
2018-Aug-08 13:30N 48°34' W 122°59'0 0.0
2018-Aug-08 13:00N 48°34' W 122°59'0 0.0
2018-Aug-08 12:30N 48°34' W 122°59'0 0.0
2018-Aug-08 12:00N 48°34' W 122°59'0 0.0
2018-Aug-08 11:30N 48°34' W 122°59'0 0.0
2018-Aug-08 11:00N 48°34' W 122°59'0 0.0
2018-Aug-08 10:30N 48°34' W 122°59'0 0.0
2018-Aug-08 10:00N 48°34' W 122°59'0 0.0
2018-Aug-08 09:29N 48°34' W 122°59'0 0.0
2018-Aug-08 09:00N 48°34' W 122°59'0 0.0
2018-Aug-08 08:30N 48°34' W 122°59'0 0.0
2018-Aug-08 08:00N 48°34' W 122°59'0 0.0
2018-Aug-08 07:30N 48°34' W 122°59'0 0.0
2018-Aug-08 07:00N 48°34' W 122°59'0 0.0
2018-Aug-08 06:30N 48°34' W 122°59'0 0.0
2018-Aug-08 06:00N 48°34' W 122°59'0 0.0
2018-Aug-08 05:30N 48°34' W 122°59'0 0.0
2018-Aug-08 05:00N 48°34' W 122°59'0 0.0
2018-Aug-08 04:30N 48°34' W 122°59'0 0.0
2018-Aug-08 04:00N 48°34' W 122°59'0 0.0
2018-Aug-08 03:30N 48°34' W 122°59'0 0.0
2018-Aug-08 03:00N 48°34' W 122°59'0 0.0
2018-Aug-08 02:30N 48°34' W 122°59'0 0.0
2018-Aug-08 02:00N 48°34' W 122°59'0 0.0
2018-Aug-08 01:30N 48°34' W 122°59'0 0.0
2018-Aug-08 01:00N 48°34' W 122°59'2 3.2
2018-Aug-08 00:30N 48°33' W 123°00'0 0.2
2018-Aug-08 00:00N 48°33' W 123°01'0 0.0
2018-Aug-07 23:30N 48°33' W 123°01'0 0.0
2018-Aug-07 22:59N 48°33' W 123°01'0 0.0
2018-Aug-07 22:30N 48°33' W 123°01'0 0.0
2018-Aug-07 22:00N 48°33' W 123°01'0 0.1
2018-Aug-07 21:30N 48°33' W 123°01'0 0.0
2018-Aug-07 21:00N 48°33' W 123°01'2 4.9
2018-Aug-07 20:30N 48°33' W 122°57'4 8.1
2018-Aug-07 20:00N 48°35' W 122°52'4 7.6
2018-Aug-07 19:30N 48°36' W 122°47'4 7.7
2018-Aug-07 19:00N 48°36' W 122°41'4 7.1
2018-Aug-07 18:30N 48°38' W 122°36'4 8.3
2018-Aug-07 18:00N 48°41' W 122°33'2 4.4
2018-Aug-07 17:29N 48°43' W 122°31'0 0.0
2018-Aug-07 16:58N 48°43' W 122°31'0 0.0
2018-Aug-07 16:30N 48°43' W 122°31'0 0.0
2018-Aug-07 16:00N 48°43' W 122°31'0 0.0
2018-Aug-07 15:30N 48°43' W 122°31'0 0.0
2018-Aug-07 15:00N 48°43' W 122°31'0 0.0
2018-Aug-07 14:30N 48°43' W 122°31'0 0.0
2018-Aug-07 14:00N 48°43' W 122°31'0 0.0
2018-Aug-07 13:30N 48°43' W 122°31'0 0.0
2018-Aug-07 13:00N 48°43' W 122°31'0 0.0
2018-Aug-07 12:30N 48°43' W 122°31'0 0.0
2018-Aug-07 12:00N 48°43' W 122°31'0 0.0
2018-Aug-07 11:30N 48°43' W 122°31'0 0.0
2018-Aug-07 11:00N 48°43' W 122°31'0 0.0
2018-Aug-07 10:30N 48°43' W 122°31'0 0.0
2018-Aug-07 10:00N 48°43' W 122°31'0 0.0
2018-Aug-07 09:30N 48°43' W 122°31'0 0.0
2018-Aug-07 09:00N 48°43' W 122°31'0 0.0
2018-Aug-07 08:30N 48°43' W 122°31'0 0.0
2018-Aug-07 08:00N 48°43' W 122°31'0 0.0
2018-Aug-07 07:30N 48°43' W 122°31'0 0.0
2018-Aug-07 07:00N 48°43' W 122°31'0 0.0
2018-Aug-07 06:30N 48°43' W 122°31'0 0.0
2018-Aug-07 06:00N 48°43' W 122°31'0 0.0
2018-Aug-07 05:30N 48°43' W 122°31'0 0.0
2018-Aug-07 05:00N 48°43' W 122°31'0 0.0
2018-Aug-07 04:30N 48°43' W 122°31'0 0.0
2018-Aug-07 04:00N 48°43' W 122°31'0 0.0
2018-Aug-07 03:30N 48°43' W 122°31'0 0.0
2018-Aug-07 03:00N 48°43' W 122°31'0 0.0
2018-Aug-07 02:30N 48°43' W 122°31'0 0.0
2018-Aug-07 02:00N 48°43' W 122°31'0 0.0
2018-Aug-07 01:30N 48°43' W 122°31'0 0.0
2018-Aug-07 01:00N 48°43' W 122°31'0 0.0
2018-Aug-07 00:30N 48°43' W 122°31'0 0.0
2018-Aug-07 00:00N 48°43' W 122°31'0 0.0
2018-Aug-06 23:30N 48°43' W 122°31'0 0.0
2018-Aug-06 23:00N 48°43' W 122°31'0 0.0
2018-Aug-06 22:30N 48°43' W 122°31'0 0.0
2018-Aug-06 22:00N 48°43' W 122°31'2 4.5
2018-Aug-06 21:30N 48°41' W 122°31'1 2.6
2018-Aug-06 21:00N 48°40' W 122°30'3 6.3
2018-Aug-06 20:30N 48°39' W 122°34'4 8.3
2018-Aug-06 20:00N 48°38' W 122°41'5 9.1
2018-Aug-06 19:30N 48°36' W 122°47'2 3.9
2018-Aug-06 19:00N 48°36' W 122°50'3 6.8
2018-Aug-06 18:30N 48°35' W 122°55'3 6.2
2018-Aug-06 18:00N 48°37' W 122°59'0 0.8
2018-Aug-06 17:30N 48°37' W 122°59'0 0.0
2018-Aug-06 16:59N 48°37' W 122°59'0 0.0
2018-Aug-06 16:30N 48°37' W 122°59'0 0.0
2018-Aug-06 15:59N 48°37' W 122°59'0 0.0
2018-Aug-06 15:30N 48°37' W 122°59'0 0.0
2018-Aug-06 15:00N 48°37' W 122°59'0 0.0
2018-Aug-06 14:30N 48°37' W 122°59'0 0.0
2018-Aug-06 14:00N 48°37' W 122°59'0 0.0
2018-Aug-06 13:30N 48°37' W 122°59'0 0.0
2018-Aug-06 13:00N 48°37' W 122°59'0 0.0
2018-Aug-06 12:29N 48°37' W 122°59'0 0.0
2018-Aug-06 12:00N 48°37' W 122°59'0 0.0
2018-Aug-06 11:30N 48°37' W 122°59'0 0.0
2018-Aug-06 11:00N 48°37' W 122°59'0 0.0
2018-Aug-06 10:30N 48°37' W 122°59'0 0.0
2018-Aug-06 10:00N 48°37' W 122°59'0 0.0
2018-Aug-06 09:30N 48°37' W 122°59'0 0.0
2018-Aug-06 09:00N 48°37' W 122°59'0 0.0
2018-Aug-06 08:30N 48°37' W 122°59'0 0.0
2018-Aug-06 08:00N 48°37' W 122°59'0 0.0
2018-Aug-06 07:30N 48°37' W 122°59'0 0.0
2018-Aug-06 07:00N 48°37' W 122°59'0 0.0
2018-Aug-06 06:30N 48°37' W 122°59'0 0.0
2018-Aug-06 06:00N 48°37' W 122°59'0 0.0
2018-Aug-06 05:30N 48°37' W 122°59'0 0.0
2018-Aug-06 05:00N 48°37' W 122°59'0 0.0
2018-Aug-06 04:30N 48°37' W 122°59'0 0.0
2018-Aug-06 04:00N 48°37' W 122°59'0 0.0
2018-Aug-06 03:29N 48°37' W 122°59'0 0.0
2018-Aug-06 03:00N 48°37' W 122°59'0 0.0
2018-Aug-06 02:30N 48°37' W 122°59'0 0.0
2018-Aug-06 02:00N 48°37' W 122°59'0 0.0
2018-Aug-06 01:30N 48°37' W 122°59'0 0.0
2018-Aug-06 01:00N 48°37' W 122°59'1 1.1
2018-Aug-06 00:30N 48°37' W 122°58'1 1.4
2018-Aug-06 00:00N 48°36' W 122°58'1 1.5
2018-Aug-05 23:30N 48°36' W 122°57'1 2.1
2018-Aug-05 23:00N 48°35' W 122°56'1 2.8
2018-Aug-05 22:30N 48°35' W 122°54'2 3.3
2018-Aug-05 22:00N 48°33' W 122°54'2 3.1
2018-Aug-05 21:30N 48°32' W 122°56'2 3.6
2018-Aug-05 21:00N 48°31' W 122°58'1 2.0
2018-Aug-05 20:30N 48°30' W 122°59'1 2.5
2018-Aug-05 20:00N 48°29' W 122°60'0 0.0
2018-Aug-05 19:30N 48°29' W 122°60'0 0.0
2018-Aug-05 19:00N 48°29' W 122°60'0 0.7
2018-Aug-05 18:30N 48°29' W 122°59'3 5.3
2018-Aug-05 18:00N 48°27' W 122°57'3 5.2
2018-Aug-05 17:30N 48°25' W 122°55'3 5.3
2018-Aug-05 17:00N 48°24' W 122°51'1 2.7
2018-Aug-05 16:30N 48°26' W 122°50'0 0.3
2018-Aug-05 16:00N 48°26' W 122°50'0 0.0
2018-Aug-05 15:30N 48°26' W 122°50'0 0.0
2018-Aug-05 15:00N 48°26' W 122°50'0 0.0
2018-Aug-05 13:56N 48°26' W 122°50'0 0.0
2018-Aug-05 13:25N 48°26' W 122°50'0 0.1
2018-Aug-05 12:58N 48°26' W 122°50'0 0.0
2018-Aug-05 12:25N 48°26' W 122°50'0 0.1
2018-Aug-05 11:46N 48°26' W 122°50'0 0.0
2018-Aug-05 11:19N 48°26' W 122°50'0 0.0
2018-Aug-05 10:55N 48°26' W 122°50'0 0.0
2018-Aug-05 10:25N 48°26' W 122°50'0 0.0
2018-Aug-05 10:00N 48°26' W 122°50'0 0.0
2018-Aug-05 09:30N 48°26' W 122°50'0 0.0
2018-Aug-05 09:00N 48°26' W 122°50'0 0.0
2018-Aug-05 08:20N 48°26' W 122°50'0 0.0
2018-Aug-05 07:54N 48°26' W 122°50'0 0.0
2018-Aug-05 07:29N 48°26' W 122°50'0 0.0
2018-Aug-05 07:00N 48°26' W 122°50'0 0.0
2018-Aug-05 06:29N 48°26' W 122°50'0 0.0
2018-Aug-05 06:00N 48°26' W 122°50'0 0.0
2018-Aug-05 05:28N 48°26' W 122°50'0 0.0
2018-Aug-05 04:59N 48°26' W 122°50'0 0.0
2018-Aug-05 04:24N 48°26' W 122°50'0 0.0
2018-Aug-05 03:58N 48°26' W 122°50'0 0.0
2018-Aug-05 03:30N 48°26' W 122°50'0 0.0
2018-Aug-05 02:56N 48°26' W 122°50'0 0.0
2018-Aug-05 02:30N 48°26' W 122°50'0 0.0
2018-Aug-05 02:00N 48°26' W 122°50'0 0.0
2018-Aug-05 01:30N 48°26' W 122°50'1 2.0
2018-Aug-05 01:00N 48°25' W 122°49'4 7.9
2018-Aug-05 00:28N 48°28' W 122°45'1 3.1
2018-Aug-05 00:00N 48°29' W 122°43'3 5.9
2018-Aug-04 23:30N 48°31' W 122°41'1 2.7
2018-Aug-04 23:00N 48°31' W 122°39'1 2.9
2018-Aug-04 22:30N 48°32' W 122°37'1 2.5
2018-Aug-04 22:00N 48°32' W 122°35'1 2.4
2018-Aug-04 21:30N 48°33' W 122°34'3 5.9
2018-Aug-04 20:59N 48°36' W 122°34'1 1.3
2018-Aug-04 20:30N 48°36' W 122°34'1 2.5
2018-Aug-04 20:00N 48°37' W 122°34'1 2.4
2018-Aug-04 19:30N 48°39' W 122°34'1 1.5
2018-Aug-04 19:00N 48°38' W 122°33'1 1.9
2018-Aug-04 18:30N 48°39' W 122°34'1 2.6
2018-Aug-04 18:00N 48°40' W 122°33'2 4.6
2018-Aug-04 17:29N 48°42' W 122°32'1 2.9
2018-Aug-04 16:59N 48°43' W 122°31'0 0.0
2018-Aug-04 16:30N 48°43' W 122°31'0 0.0
2018-Aug-04 16:00N 48°43' W 122°31'0 0.0
2018-Aug-04 15:30N 48°43' W 122°31'0 0.0
2018-Aug-04 15:00N 48°43' W 122°31'0 0.0
2018-Aug-04 14:30N 48°43' W 122°31'0 0.0
2018-Aug-04 13:59N 48°43' W 122°31'0 0.0
2018-Aug-04 13:30N 48°43' W 122°31'0 0.0
2018-Aug-04 13:00N 48°43' W 122°31'0 0.0
2018-Aug-04 12:30N 48°43' W 122°31'0 0.0
2018-Aug-04 12:00N 48°43' W 122°31'0 0.0
2018-Aug-04 11:30N 48°43' W 122°31'0 0.0
2018-Aug-04 11:00N 48°43' W 122°31'0 0.0
2018-Aug-04 10:30N 48°43' W 122°31'0 0.0
2018-Aug-04 10:00N 48°43' W 122°31'0 0.0
2018-Aug-04 09:30N 48°43' W 122°31'0 0.0
2018-Aug-04 09:00N 48°43' W 122°31'0 0.0
2018-Aug-04 08:30N 48°43' W 122°31'0 0.0
2018-Aug-04 07:59N 48°43' W 122°31'0 0.0
2018-Aug-04 07:30N 48°43' W 122°31'0 0.0
2018-Aug-04 07:00N 48°43' W 122°31'0 0.0
2018-Aug-04 06:30N 48°43' W 122°31'  
Track history (hours):
 
Tides and Currents Weather Stations Pressure Air Temp Water Temp Dewpoint Dewpoint Depression Visibility Wind Speed Wind Dir Waves Ship Positions

Zodiac

Ship's website: http://www.schoonerzodiac.com/

Owner: VESSEL ZODIAC CORP, Bellingham, WA. More information available from US FCC via Universal Licensing System and Coast Guard Vessel Documentation Center.

Last reported at 2018-Aug-14 06:14 UTC. Time now 2018-Aug-14 07:04 UTC.
Position N 48°40' W 123°11'.

Length 34 m.

Type: Sailing vessel. MMSI: 366968070.

Date/timePositionNaut miles runAvg speedWind from/ knotsBaromVisibWave heightAir tempDewpointWater temp
2018-Aug-14 06:14N 48°40' W 123°11'0 0.0
2018-Aug-14 05:10N 48°40' W 123°11'0 0.0
2018-Aug-14 05:00N 48°40' W 123°11'0 0.0
2018-Aug-14 02:55N 48°40' W 123°11'1 3.0
2018-Aug-14 02:30N 48°39' W 123°10'2 4.2
2018-Aug-14 01:59N 48°37' W 123°10'0 0.0
2018-Aug-14 00:52N 48°37' W 123°10'0 0.0
2018-Aug-14 00:23N 48°37' W 123°10'0 0.0
2018-Aug-13 23:53N 48°37' W 123°10'0 0.0
2018-Aug-13 23:25N 48°37' W 123°10'0 0.0
2018-Aug-13 22:54N 48°37' W 123°10'0 0.0
2018-Aug-13 22:13N 48°37' W 123°10'0 0.0
2018-Aug-13 21:56N 48°37' W 123°10'0 0.0
2018-Aug-13 21:23N 48°37' W 123°10'0 0.0
2018-Aug-13 20:54N 48°37' W 123°10'0 0.0
2018-Aug-13 20:23N 48°37' W 123°10'0 0.0
2018-Aug-13 17:49N 48°37' W 123°10'2 7.2
2018-Aug-13 17:28N 48°38' W 123°07'4 8.0
2018-Aug-13 17:00N 48°35' W 123°02'3 5.6
2018-Aug-13 16:30N 48°32' W 123°01'0 0.5
2018-Aug-13 16:00N 48°32' W 123°01'2 4.1
2018-Aug-13 15:30N 48°34' W 122°59'0 0.1
2018-Aug-13 15:00N 48°34' W 122°59'0 0.1
2018-Aug-13 14:30N 48°34' W 122°59'0 0.0
2018-Aug-13 14:00N 48°34' W 122°59'0 0.0
2018-Aug-13 13:29N 48°34' W 122°59'0 0.0
2018-Aug-13 13:00N 48°34' W 122°59'0 0.0
2018-Aug-13 12:30N 48°34' W 122°59'0 0.1
2018-Aug-13 12:00N 48°34' W 122°59'0 0.0
2018-Aug-13 11:30N 48°34' W 122°59'0 0.0
2018-Aug-13 11:00N 48°34' W 122°59'0 0.0
2018-Aug-13 10:30N 48°34' W 122°59'0 0.0
2018-Aug-13 10:00N 48°34' W 122°59'0 0.0
2018-Aug-13 09:30N 48°34' W 122°59'0 0.0
2018-Aug-13 08:59N 48°34' W 122°59'0 0.0
2018-Aug-13 08:30N 48°34' W 122°59'0 0.0
2018-Aug-13 07:59N 48°34' W 122°59'0 0.0
2018-Aug-13 07:30N 48°34' W 122°59'0 0.0
2018-Aug-13 06:59N 48°34' W 122°59'0 0.0
2018-Aug-13 06:30N 48°34' W 122°59'0 0.0
2018-Aug-13 06:00N 48°34' W 122°59'0 0.1
2018-Aug-13 05:30N 48°34' W 122°59'0 0.0
2018-Aug-13 05:00N 48°34' W 122°59'0 0.0
2018-Aug-13 04:30N 48°34' W 122°59'0 0.0
2018-Aug-13 04:00N 48°34' W 122°59'0 0.0
2018-Aug-13 03:30N 48°34' W 122°59'0 0.1
2018-Aug-13 03:00N 48°34' W 122°59'0 0.0
2018-Aug-13 02:30N 48°34' W 122°59'0 0.0
2018-Aug-13 02:00N 48°34' W 122°59'0 0.0
2018-Aug-13 01:30N 48°34' W 122°59'0 0.0
2018-Aug-13 01:00N 48°34' W 122°59'1 2.6
2018-Aug-13 00:30N 48°33' W 122°58'3 5.8
2018-Aug-13 00:00N 48°34' W 122°54'0 0.0
2018-Aug-12 23:30N 48°34' W 122°54'0 0.0
2018-Aug-12 23:00N 48°34' W 122°54'0 0.0
2018-Aug-12 22:30N 48°34' W 122°54'0 0.0
2018-Aug-12 22:00N 48°34' W 122°54'0 0.0
2018-Aug-12 21:30N 48°34' W 122°54'0 0.0
2018-Aug-12 21:00N 48°34' W 122°54'0 0.0
2018-Aug-12 20:30N 48°34' W 122°54'0 0.0
2018-Aug-12 20:00N 48°34' W 122°54'0 0.0
2018-Aug-12 19:30N 48°34' W 122°54'0 0.0
2018-Aug-12 19:00N 48°34' W 122°54'0 0.1
2018-Aug-12 18:30N 48°34' W 122°54'3 6.2
2018-Aug-12 18:00N 48°35' W 122°50'510.4
2018-Aug-12 17:30N 48°39' W 122°44'5 9.0
2018-Aug-12 17:00N 48°42' W 122°48'4 8.4
2018-Aug-12 16:29N 48°45' W 122°53'1 0.5
2018-Aug-12 14:44N 48°46' W 122°54'0 0.0
2018-Aug-12 14:30N 48°46' W 122°54'0 0.0
2018-Aug-12 14:00N 48°46' W 122°54'0 0.0
2018-Aug-12 13:26N 48°46' W 122°54'0 0.0
2018-Aug-12 12:43N 48°46' W 122°54'0 0.0
2018-Aug-12 12:25N 48°46' W 122°54'0 0.0
2018-Aug-12 11:58N 48°46' W 122°54'0 0.0
2018-Aug-12 11:27N 48°46' W 122°54'0 0.0
2018-Aug-12 11:00N 48°46' W 122°54'0 0.0
2018-Aug-12 10:29N 48°46' W 122°54'0 0.0
2018-Aug-12 10:00N 48°46' W 122°54'0 0.0
2018-Aug-12 09:10N 48°46' W 122°54'0 0.0
2018-Aug-12 09:00N 48°46' W 122°54'0 0.0
2018-Aug-12 08:30N 48°46' W 122°54'0 0.0
2018-Aug-12 07:59N 48°46' W 122°54'0 0.0
2018-Aug-12 07:24N 48°46' W 122°54'0 0.0
2018-Aug-12 06:54N 48°46' W 122°54'0 0.0
2018-Aug-12 06:21N 48°46' W 122°54'0 0.0
2018-Aug-12 06:00N 48°46' W 122°54'0 0.0
2018-Aug-12 05:30N 48°46' W 122°54'0 0.0
2018-Aug-12 03:58N 48°46' W 122°54'0 0.0
2018-Aug-12 03:13N 48°46' W 122°54'0 0.0
2018-Aug-12 02:51N 48°46' W 122°54'0 0.0
2018-Aug-12 02:28N 48°46' W 122°54'0 0.0
2018-Aug-12 01:55N 48°46' W 122°54'0 0.0
2018-Aug-12 01:29N 48°46' W 122°54'0 0.0
2018-Aug-12 00:52N 48°46' W 122°54'0 0.0
2018-Aug-12 00:30N 48°46' W 122°54'0 0.0
2018-Aug-11 23:52N 48°46' W 122°54'3 2.7
2018-Aug-11 22:42N 48°44' W 122°50'1 5.7
2018-Aug-11 22:28N 48°43' W 122°48'6 5.7
2018-Aug-11 21:23N 48°39' W 122°41'2 2.3
2018-Aug-11 20:40N 48°38' W 122°39'1 2.3
2018-Aug-11 20:23N 48°37' W 122°39'1 2.0
2018-Aug-11 20:00N 48°37' W 122°38'3 5.1
2018-Aug-11 19:29N 48°38' W 122°35'2 4.0
2018-Aug-11 19:00N 48°39' W 122°33'1 2.2
2018-Aug-11 18:29N 48°40' W 122°34'4 7.6
2018-Aug-11 18:00N 48°43' W 122°31'0 0.5
2018-Aug-11 17:28N 48°43' W 122°31'0 0.0
2018-Aug-11 17:00N 48°43' W 122°31'0 0.0
2018-Aug-11 16:30N 48°43' W 122°31'0 0.0
2018-Aug-11 16:00N 48°43' W 122°31'0 0.0
2018-Aug-11 15:30N 48°43' W 122°31'0 0.0
2018-Aug-11 14:59N 48°43' W 122°31'0 0.0
2018-Aug-11 14:30N 48°43' W 122°31'0 0.0
2018-Aug-11 14:00N 48°43' W 122°31'0 0.0
2018-Aug-11 13:30N 48°43' W 122°31'0 0.0
2018-Aug-11 13:00N 48°43' W 122°31'0 0.0
2018-Aug-11 12:30N 48°43' W 122°31'0 0.0
2018-Aug-11 12:00N 48°43' W 122°31'0 0.0
2018-Aug-11 11:30N 48°43' W 122°31'0 0.0
2018-Aug-11 11:00N 48°43' W 122°31'0 0.0
2018-Aug-11 10:30N 48°43' W 122°31'0 0.0
2018-Aug-11 10:00N 48°43' W 122°31'0 0.0
2018-Aug-11 09:30N 48°43' W 122°31'0 0.0
2018-Aug-11 09:00N 48°43' W 122°31'0 0.0
2018-Aug-11 08:30N 48°43' W 122°31'0 0.0
2018-Aug-11 08:00N 48°43' W 122°31'0 0.0
2018-Aug-11 07:30N 48°43' W 122°31'0 0.0
2018-Aug-11 07:00N 48°43' W 122°31'0 0.0
2018-Aug-11 06:29N 48°43' W 122°31'0 0.0
2018-Aug-11 06:00N 48°43' W 122°31'0 0.0
2018-Aug-11 05:29N 48°43' W 122°31'0 0.0
2018-Aug-11 05:00N 48°43' W 122°31'0 0.0
2018-Aug-11 04:30N 48°43' W 122°31'0 0.1
2018-Aug-11 04:00N 48°43' W 122°31'1 2.3
2018-Aug-11 03:25N 48°44' W 122°33'2 4.4
2018-Aug-11 03:00N 48°44' W 122°36'2 4.8
2018-Aug-11 02:29N 48°44' W 122°32'1 2.5
2018-Aug-11 01:58N 48°43' W 122°34'1 2.4
2018-Aug-11 01:24N 48°42' W 122°32'1 3.0
2018-Aug-11 01:00N 48°43' W 122°31'0 0.0
2018-Aug-11 00:30N 48°43' W 122°31'0 0.0
2018-Aug-11 00:00N 48°43' W 122°31'0 0.0
2018-Aug-10 23:30N 48°43' W 122°31'0 0.0
2018-Aug-10 23:00N 48°43' W 122°31'0 0.0
2018-Aug-10 22:30N 48°43' W 122°31'0 0.0
2018-Aug-10 22:00N 48°43' W 122°31'0 0.0
2018-Aug-10 21:30N 48°43' W 122°31'0 0.0
2018-Aug-10 20:59N 48°43' W 122°31'0 0.0
2018-Aug-10 20:30N 48°43' W 122°31'0 0.0
2018-Aug-10 20:00N 48°43' W 122°31'0 0.0
2018-Aug-10 19:30N 48°43' W 122°31'0 0.0
2018-Aug-10 19:00N 48°43' W 122°31'0 0.0
2018-Aug-10 18:30N 48°43' W 122°31'0 0.0
2018-Aug-10 18:00N 48°43' W 122°31'0 0.0
2018-Aug-10 17:29N 48°43' W 122°31'0 0.0
2018-Aug-10 17:00N 48°43' W 122°31'0 0.0
2018-Aug-10 16:28N 48°43' W 122°31'0 0.0
2018-Aug-10 16:00N 48°43' W 122°31'0 0.0
2018-Aug-10 15:30N 48°43' W 122°31'0 0.0
2018-Aug-10 15:00N 48°43' W 122°31'0 0.0
2018-Aug-10 14:30N 48°43' W 122°31'0 0.0
2018-Aug-10 14:00N 48°43' W 122°31'0 0.0
2018-Aug-10 13:30N 48°43' W 122°31'0 0.0
2018-Aug-10 13:00N 48°43' W 122°31'0 0.0
2018-Aug-10 12:29N 48°43' W 122°31'0 0.0
2018-Aug-10 12:00N 48°43' W 122°31'0 0.0
2018-Aug-10 11:30N 48°43' W 122°31'0 0.0
2018-Aug-10 11:00N 48°43' W 122°31'0 0.0
2018-Aug-10 10:30N 48°43' W 122°31'0 0.0
2018-Aug-10 10:00N 48°43' W 122°31'0 0.0
2018-Aug-10 09:30N 48°43' W 122°31'0 0.0
2018-Aug-10 09:00N 48°43' W 122°31'0 0.0
2018-Aug-10 08:30N 48°43' W 122°31'0 0.0
2018-Aug-10 08:00N 48°43' W 122°31'0 0.0
2018-Aug-10 07:30N 48°43' W 122°31'0 0.0
2018-Aug-10 07:00N 48°43' W 122°31'0 0.0
2018-Aug-10 06:30N 48°43' W 122°31'0 0.0
2018-Aug-10 06:00N 48°43' W 122°31'0 0.0
2018-Aug-10 05:30N 48°43' W 122°31'0 0.0
2018-Aug-10 05:00N 48°43' W 122°31'0 0.0
2018-Aug-10 04:30N 48°43' W 122°31'0 0.3
2018-Aug-10 03:59N 48°43' W 122°31'1 1.1
2018-Aug-10 03:26N 48°43' W 122°32'1 3.1
2018-Aug-10 02:58N 48°42' W 122°33'1 2.2
2018-Aug-10 02:29N 48°42' W 122°31'2 3.1
2018-Aug-10 01:58N 48°42' W 122°34'2 3.3
2018-Aug-10 01:15N 48°43' W 122°31'0 0.7
2018-Aug-10 00:58N 48°43' W 122°31'0 0.0
2018-Aug-10 00:30N 48°43' W 122°31'0 0.0
2018-Aug-10 00:00N 48°43' W 122°31'0 0.0
2018-Aug-09 23:29N 48°43' W 122°31'0 0.0
2018-Aug-09 23:00N 48°43' W 122°31'0 0.0
2018-Aug-09 22:29N 48°43' W 122°31'0 0.0
2018-Aug-09 22:00N 48°43' W 122°31'0 0.6
2018-Aug-09 21:27N 48°44' W 122°31'2 2.1
2018-Aug-09 20:30N 48°43' W 122°34'1 2.0
2018-Aug-09 19:48N 48°42' W 122°34'1 2.7
2018-Aug-09 19:28N 48°41' W 122°33'1 2.7
2018-Aug-09 18:57N 48°40' W 122°33'1 3.3
2018-Aug-09 18:30N 48°38' W 122°35'3 5.3
2018-Aug-09 18:00N 48°39' W 122°39'3 5.6
2018-Aug-09 17:30N 48°39' W 122°43'5 9.8
2018-Aug-09 17:00N 48°42' W 122°49'5 8.9
2018-Aug-09 16:29N 48°46' W 122°54'0 0.2
2018-Aug-09 15:49N 48°46' W 122°54'0 0.0
2018-Aug-09 15:19N 48°46' W 122°54'0 0.0
2018-Aug-09 13:54N 48°46' W 122°54'0 0.0
2018-Aug-09 13:00N 48°46' W 122°54'0 0.0
2018-Aug-09 11:57N 48°46' W 122°54'0 0.0
2018-Aug-09 11:24N 48°46' W 122°54'0 0.0
2018-Aug-09 10:58N 48°46' W 122°54'0 0.0
2018-Aug-09 08:08N 48°46' W 122°54'0 0.0
2018-Aug-09 07:50N 48°46' W 122°54'0 0.0
2018-Aug-09 07:17N 48°46' W 122°54'0 0.0
2018-Aug-09 03:37N 48°46' W 122°54'0 0.0
2018-Aug-09 00:19N 48°46' W 122°54'1 3.8
2018-Aug-09 00:00N 48°45' W 122°53'5 7.4
2018-Aug-08 23:21N 48°41' W 122°58'1 2.9
2018-Aug-08 23:00N 48°41' W 122°60'1 2.5
2018-Aug-08 22:29N 48°40' W 123°00'2 3.3
2018-Aug-08 22:00N 48°40' W 123°03'1 1.2
2018-Aug-08 21:30N 48°39' W 123°03'2 3.6
2018-Aug-08 21:00N 48°38' W 123°02'2 3.4
2018-Aug-08 20:30N 48°36' W 123°02'1 1.4
2018-Aug-08 20:00N 48°36' W 123°03'0 0.6
2018-Aug-08 19:30N 48°36' W 123°03'0 0.9
2018-Aug-08 19:00N 48°35' W 123°03'3 5.7
2018-Aug-08 18:30N 48°34' W 122°59'0 0.0
2018-Aug-08 18:00N 48°34' W 122°59'0 0.0
2018-Aug-08 17:29N 48°34' W 122°59'0 0.0
2018-Aug-08 17:00N 48°34' W 122°59'0 0.0
2018-Aug-08 16:30N 48°34' W 122°59'0 0.0
2018-Aug-08 16:00N 48°34' W 122°59'0 0.0
2018-Aug-08 15:30N 48°34' W 122°59'0 0.0
2018-Aug-08 15:00N 48°34' W 122°59'0 0.0
2018-Aug-08 14:30N 48°34' W 122°59'0 0.0
2018-Aug-08 14:00N 48°34' W 122°59'0 0.0
2018-Aug-08 13:30N 48°34' W 122°59'0 0.0
2018-Aug-08 13:00N 48°34' W 122°59'0 0.0
2018-Aug-08 12:30N 48°34' W 122°59'0 0.0
2018-Aug-08 12:00N 48°34' W 122°59'0 0.0
2018-Aug-08 11:30N 48°34' W 122°59'0 0.0
2018-Aug-08 11:00N 48°34' W 122°59'0 0.0
2018-Aug-08 10:30N 48°34' W 122°59'0 0.0
2018-Aug-08 10:00N 48°34' W 122°59'0 0.0
2018-Aug-08 09:29N 48°34' W 122°59'0 0.0
2018-Aug-08 09:00N 48°34' W 122°59'0 0.0
2018-Aug-08 08:30N 48°34' W 122°59'0 0.0
2018-Aug-08 08:00N 48°34' W 122°59'0 0.0
2018-Aug-08 07:30N 48°34' W 122°59'0 0.0
2018-Aug-08 07:00N 48°34' W 122°59'0 0.0
2018-Aug-08 06:30N 48°34' W 122°59'0 0.0
2018-Aug-08 06:00N 48°34' W 122°59'0 0.0
2018-Aug-08 05:30N 48°34' W 122°59'0 0.0
2018-Aug-08 05:00N 48°34' W 122°59'0 0.0
2018-Aug-08 04:30N 48°34' W 122°59'0 0.0
2018-Aug-08 04:00N 48°34' W 122°59'0 0.0
2018-Aug-08 03:30N 48°34' W 122°59'0 0.0
2018-Aug-08 03:00N 48°34' W 122°59'0 0.0
2018-Aug-08 02:30N 48°34' W 122°59'0 0.0
2018-Aug-08 02:00N 48°34' W 122°59'0 0.0
2018-Aug-08 01:30N 48°34' W 122°59'0 0.0
2018-Aug-08 01:00N 48°34' W 122°59'2 3.2
2018-Aug-08 00:30N 48°33' W 123°00'0 0.2
2018-Aug-08 00:00N 48°33' W 123°01'0 0.0
2018-Aug-07 23:30N 48°33' W 123°01'0 0.0
2018-Aug-07 22:59N 48°33' W 123°01'0 0.0
2018-Aug-07 22:30N 48°33' W 123°01'0 0.0
2018-Aug-07 22:00N 48°33' W 123°01'0 0.1
2018-Aug-07 21:30N 48°33' W 123°01'0 0.0
2018-Aug-07 21:00N 48°33' W 123°01'2 4.9
2018-Aug-07 20:30N 48°33' W 122°57'4 8.1
2018-Aug-07 20:00N 48°35' W 122°52'4 7.6
2018-Aug-07 19:30N 48°36' W 122°47'4 7.7
2018-Aug-07 19:00N 48°36' W 122°41'4 7.1
2018-Aug-07 18:30N 48°38' W 122°36'4 8.3
2018-Aug-07 18:00N 48°41' W 122°33'2 4.4
2018-Aug-07 17:29N 48°43' W 122°31'0 0.0
2018-Aug-07 16:58N 48°43' W 122°31'0 0.0
2018-Aug-07 16:30N 48°43' W 122°31'0 0.0
2018-Aug-07 16:00N 48°43' W 122°31'0 0.0
2018-Aug-07 15:30N 48°43' W 122°31'0 0.0
2018-Aug-07 15:00N 48°43' W 122°31'0 0.0
2018-Aug-07 14:30N 48°43' W 122°31'0 0.0
2018-Aug-07 14:00N 48°43' W 122°31'0 0.0
2018-Aug-07 13:30N 48°43' W 122°31'0 0.0
2018-Aug-07 13:00N 48°43' W 122°31'0 0.0
2018-Aug-07 12:30N 48°43' W 122°31'0 0.0
2018-Aug-07 12:00N 48°43' W 122°31'0 0.0
2018-Aug-07 11:30N 48°43' W 122°31'0 0.0
2018-Aug-07 11:00N 48°43' W 122°31'0 0.0
2018-Aug-07 10:30N 48°43' W 122°31'0 0.0
2018-Aug-07 10:00N 48°43' W 122°31'0 0.0
2018-Aug-07 09:30N 48°43' W 122°31'0 0.0
2018-Aug-07 09:00N 48°43' W 122°31'0 0.0
2018-Aug-07 08:30N 48°43' W 122°31'0 0.0
2018-Aug-07 08:00N 48°43' W 122°31'0 0.0
2018-Aug-07 07:30N 48°43' W 122°31'0 0.0
2018-Aug-07 07:00N 48°43' W 122°31'0 0.0
2018-Aug-07 06:30N 48°43' W 122°31'0 0.0
2018-Aug-07 06:00N 48°43' W 122°31'0 0.0
2018-Aug-07 05:30N 48°43' W 122°31'0 0.0
2018-Aug-07 05:00N 48°43' W 122°31'0 0.0
2018-Aug-07 04:30N 48°43' W 122°31'0 0.0
2018-Aug-07 04:00N 48°43' W 122°31'0 0.0
2018-Aug-07 03:30N 48°43' W 122°31'0 0.0
2018-Aug-07 03:00N 48°43' W 122°31'0 0.0
2018-Aug-07 02:30N 48°43' W 122°31'0 0.0
2018-Aug-07 02:00N 48°43' W 122°31'0 0.0
2018-Aug-07 01:30N 48°43' W 122°31'0 0.0
2018-Aug-07 01:00N 48°43' W 122°31'0 0.0
2018-Aug-07 00:30N 48°43' W 122°31'0 0.0
2018-Aug-07 00:00N 48°43' W 122°31'0 0.0
2018-Aug-06 23:30N 48°43' W 122°31'0 0.0
2018-Aug-06 23:00N 48°43' W 122°31'0 0.0
2018-Aug-06 22:30N 48°43' W 122°31'0 0.0
2018-Aug-06 22:00N 48°43' W 122°31'2 4.5
2018-Aug-06 21:30N 48°41' W 122°31'1 2.6
2018-Aug-06 21:00N 48°40' W 122°30'3 6.3
2018-Aug-06 20:30N 48°39' W 122°34'4 8.3
2018-Aug-06 20:00N 48°38' W 122°41'5 9.1
2018-Aug-06 19:30N 48°36' W 122°47'2 3.9
2018-Aug-06 19:00N 48°36' W 122°50'3 6.8
2018-Aug-06 18:30N 48°35' W 122°55'3 6.2
2018-Aug-06 18:00N 48°37' W 122°59'0 0.8
2018-Aug-06 17:30N 48°37' W 122°59'0 0.0
2018-Aug-06 16:59N 48°37' W 122°59'0 0.0
2018-Aug-06 16:30N 48°37' W 122°59'0 0.0
2018-Aug-06 15:59N 48°37' W 122°59'0 0.0
2018-Aug-06 15:30N 48°37' W 122°59'0 0.0
2018-Aug-06 15:00N 48°37' W 122°59'0 0.0
2018-Aug-06 14:30N 48°37' W 122°59'0 0.0
2018-Aug-06 14:00N 48°37' W 122°59'0 0.0
2018-Aug-06 13:30N 48°37' W 122°59'0 0.0
2018-Aug-06 13:00N 48°37' W 122°59'0 0.0
2018-Aug-06 12:29N 48°37' W 122°59'0 0.0
2018-Aug-06 12:00N 48°37' W 122°59'0 0.0
2018-Aug-06 11:30N 48°37' W 122°59'0 0.0
2018-Aug-06 11:00N 48°37' W 122°59'0 0.0
2018-Aug-06 10:30N 48°37' W 122°59'0 0.0
2018-Aug-06 10:00N 48°37' W 122°59'0 0.0
2018-Aug-06 09:30N 48°37' W 122°59'0 0.0
2018-Aug-06 09:00N 48°37' W 122°59'0 0.0
2018-Aug-06 08:30N 48°37' W 122°59'0 0.0
2018-Aug-06 08:00N 48°37' W 122°59'0 0.0
2018-Aug-06 07:30N 48°37' W 122°59'0 0.0
2018-Aug-06 07:00N 48°37' W 122°59'0 0.0
2018-Aug-06 06:30N 48°37' W 122°59'0 0.0
2018-Aug-06 06:00N 48°37' W 122°59'0 0.0
2018-Aug-06 05:30N 48°37' W 122°59'0 0.0
2018-Aug-06 05:00N 48°37' W 122°59'0 0.0
2018-Aug-06 04:30N 48°37' W 122°59'0 0.0
2018-Aug-06 04:00N 48°37' W 122°59'0 0.0
2018-Aug-06 03:29N 48°37' W 122°59'0 0.0
2018-Aug-06 03:00N 48°37' W 122°59'0 0.0
2018-Aug-06 02:30N 48°37' W 122°59'0 0.0
2018-Aug-06 02:00N 48°37' W 122°59'0 0.0
2018-Aug-06 01:30N 48°37' W 122°59'0 0.0
2018-Aug-06 01:00N 48°37' W 122°59'1 1.1
2018-Aug-06 00:30N 48°37' W 122°58'1 1.4
2018-Aug-06 00:00N 48°36' W 122°58'1 1.5
2018-Aug-05 23:30N 48°36' W 122°57'1 2.1
2018-Aug-05 23:00N 48°35' W 122°56'1 2.8
2018-Aug-05 22:30N 48°35' W 122°54'2 3.3
2018-Aug-05 22:00N 48°33' W 122°54'2 3.1
2018-Aug-05 21:30N 48°32' W 122°56'2 3.6
2018-Aug-05 21:00N 48°31' W 122°58'1 2.0
2018-Aug-05 20:30N 48°30' W 122°59'1 2.5
2018-Aug-05 20:00N 48°29' W 122°60'0 0.0
2018-Aug-05 19:30N 48°29' W 122°60'0 0.0
2018-Aug-05 19:00N 48°29' W 122°60'0 0.7
2018-Aug-05 18:30N 48°29' W 122°59'3 5.3
2018-Aug-05 18:00N 48°27' W 122°57'3 5.2
2018-Aug-05 17:30N 48°25' W 122°55'3 5.3
2018-Aug-05 17:00N 48°24' W 122°51'1 2.7
2018-Aug-05 16:30N 48°26' W 122°50'0 0.3
2018-Aug-05 16:00N 48°26' W 122°50'0 0.0
2018-Aug-05 15:30N 48°26' W 122°50'0 0.0
2018-Aug-05 15:00N 48°26' W 122°50'0 0.0
2018-Aug-05 13:56N 48°26' W 122°50'0 0.0
2018-Aug-05 13:25N 48°26' W 122°50'0 0.1
2018-Aug-05 12:58N 48°26' W 122°50'0 0.0
2018-Aug-05 12:25N 48°26' W 122°50'0 0.1
2018-Aug-05 11:46N 48°26' W 122°50'0 0.0
2018-Aug-05 11:19N 48°26' W 122°50'0 0.0
2018-Aug-05 10:55N 48°26' W 122°50'0 0.0
2018-Aug-05 10:25N 48°26' W 122°50'0 0.0
2018-Aug-05 10:00N 48°26' W 122°50'0 0.0
2018-Aug-05 09:30N 48°26' W 122°50'0 0.0
2018-Aug-05 09:00N 48°26' W 122°50'0 0.0
2018-Aug-05 08:20N 48°26' W 122°50'0 0.0
2018-Aug-05 07:54N 48°26' W 122°50'0 0.0
2018-Aug-05 07:29N 48°26' W 122°50'0 0.0
2018-Aug-05 07:00N 48°26' W 122°50'0 0.0
2018-Aug-05 06:29N 48°26' W 122°50'0 0.0
2018-Aug-05 06:00N 48°26' W 122°50'0 0.0
2018-Aug-05 05:28N 48°26' W 122°50'0 0.0
2018-Aug-05 04:59N 48°26' W 122°50'0 0.0
2018-Aug-05 04:24N 48°26' W 122°50'0 0.0
2018-Aug-05 03:58N 48°26' W 122°50'0 0.0
2018-Aug-05 03:30N 48°26' W 122°50'0 0.0
2018-Aug-05 02:56N 48°26' W 122°50'0 0.0
2018-Aug-05 02:30N 48°26' W 122°50'0 0.0
2018-Aug-05 02:00N 48°26' W 122°50'0 0.0
2018-Aug-05 01:30N 48°26' W 122°50'1 2.0
2018-Aug-05 01:00N 48°25' W 122°49'4 7.9
2018-Aug-05 00:28N 48°28' W 122°45'1 3.1
2018-Aug-05 00:00N 48°29' W 122°43'3 5.9
2018-Aug-04 23:30N 48°31' W 122°41'1 2.7
2018-Aug-04 23:00N 48°31' W 122°39'1 2.9
2018-Aug-04 22:30N 48°32' W 122°37'1 2.5
2018-Aug-04 22:00N 48°32' W 122°35'1 2.4
2018-Aug-04 21:30N 48°33' W 122°34'3 5.9
2018-Aug-04 20:59N 48°36' W 122°34'1 1.3
2018-Aug-04 20:30N 48°36' W 122°34'1 2.5
2018-Aug-04 20:00N 48°37' W 122°34'1 2.4
2018-Aug-04 19:30N 48°39' W 122°34'1 1.5
2018-Aug-04 19:00N 48°38' W 122°33'1 1.9
2018-Aug-04 18:30N 48°39' W 122°34'1 2.6
2018-Aug-04 18:00N 48°40' W 122°33'2 4.6
2018-Aug-04 17:29N 48°42' W 122°32'1 2.9
2018-Aug-04 16:59N 48°43' W 122°31'0 0.0
2018-Aug-04 16:30N 48°43' W 122°31'0 0.0
2018-Aug-04 16:00N 48°43' W 122°31'0 0.0
2018-Aug-04 15:30N 48°43' W 122°31'0 0.0
2018-Aug-04 15:00N 48°43' W 122°31'0 0.0
2018-Aug-04 14:30N 48°43' W 122°31'0 0.0
2018-Aug-04 13:59N 48°43' W 122°31'0 0.0
2018-Aug-04 13:30N 48°43' W 122°31'0 0.0
2018-Aug-04 13:00N 48°43' W 122°31'0 0.0
2018-Aug-04 12:30N 48°43' W 122°31'0 0.0
2018-Aug-04 12:00N 48°43' W 122°31'0 0.0
2018-Aug-04 11:30N 48°43' W 122°31'0 0.0
2018-Aug-04 11:00N 48°43' W 122°31'0 0.0
2018-Aug-04 10:30N 48°43' W 122°31'0 0.0
2018-Aug-04 10:00N 48°43' W 122°31'0 0.0
2018-Aug-04 09:30N 48°43' W 122°31'0 0.0
2018-Aug-04 09:00N 48°43' W 122°31'0 0.0
2018-Aug-04 08:30N 48°43' W 122°31'0 0.0
2018-Aug-04 07:59N 48°43' W 122°31'0 0.0
2018-Aug-04 07:30N 48°43' W 122°31'0 0.0
2018-Aug-04 07:00N 48°43' W 122°31'0 0.0
2018-Aug-04 06:30N 48°43' W 122°31'  

Dump ship's entire track history